createdAt,value
2022-11-04T00:01:33.021Z,99421.56
2022-11-04T00:06:35.700Z,99415.16
2022-11-04T00:11:56.115Z,99427.09
2022-11-04T00:17:16.994Z,99417.84
2022-11-04T00:22:37.709Z,99419.13
2022-11-04T00:27:58.028Z,99419.97
2022-11-04T00:33:18.245Z,99416.84
2022-11-04T00:38:20.196Z,99415.63
2022-11-04T00:43:22.120Z,99423.00
2022-11-04T00:48:24.020Z,99412.16
2022-11-04T00:53:25.907Z,99413.88
2022-11-04T00:58:28.744Z,99414.59
2022-11-04T01:03:30.821Z,99406.50
2022-11-04T01:08:32.875Z,99410.66
2022-11-04T01:13:34.861Z,99405.53
2022-11-04T01:18:37.045Z,99397.81
2022-11-04T01:23:39.265Z,99404.72
2022-11-04T01:28:41.290Z,99385.88
2022-11-04T01:33:43.257Z,99398.84
2022-11-04T01:38:45.930Z,99412.03
2022-11-04T01:43:53.724Z,99413.13
2022-11-04T01:48:59.634Z,99404.06
2022-11-04T01:54:02.348Z,99409.09
2022-11-04T01:59:07.966Z,99404.09
2022-11-04T02:04:25.987Z,99412.19
2022-11-04T02:09:28.889Z,99411.34
2022-11-04T02:14:31.592Z,99409.22
2022-11-04T02:19:36.473Z,99421.78
2022-11-04T02:24:53.715Z,99408.47
2022-11-04T02:29:58.296Z,99407.06
2022-11-04T02:35:05.479Z,99401.34
2022-11-04T02:40:10.554Z,99406.97
2022-11-04T02:45:21.735Z,99403.91
2022-11-04T02:50:29.756Z,99407.59
2022-11-04T02:55:54.704Z,99413.91
2022-11-04T03:00:58.997Z,99411.41
2022-11-04T03:06:01.953Z,99408.56
2022-11-04T03:11:06.692Z,99405.53
2022-11-04T03:16:12.890Z,99410.78
2022-11-04T03:21:15.476Z,99406.25
2022-11-04T03:26:20.421Z,99407.19
2022-11-04T03:31:26.215Z,99409.81
2022-11-04T03:36:29.764Z,99401.84
2022-11-04T03:41:36.895Z,99407.09
2022-11-04T03:46:39.036Z,99402.69
2022-11-04T03:51:40.940Z,99404.34
2022-11-04T03:56:51.834Z,99407.53
2022-11-04T04:02:03.923Z,99403.72
2022-11-04T04:07:18.023Z,99405.84
2022-11-04T04:12:30.524Z,99403.06
2022-11-04T04:17:43.129Z,99407.94
2022-11-04T04:23:01.964Z,99406.88
2022-11-04T04:28:04.621Z,99411.97
2022-11-04T04:33:11.687Z,99418.03
2022-11-04T04:38:42.315Z,99420.53
2022-11-04T04:44:02.605Z,99421.16
2022-11-04T04:49:05.846Z,99419.88
2022-11-04T04:54:07.945Z,99423.06
2022-11-04T04:59:09.827Z,99422.44
2022-11-04T05:04:11.743Z,99430.50
2022-11-04T05:09:13.611Z,99430.56
2022-11-04T05:14:15.508Z,99436.25
2022-11-04T05:19:17.431Z,99434.78
2022-11-04T05:24:19.359Z,99429.03
2022-11-04T05:29:21.329Z,99434.34
2022-11-04T05:34:23.434Z,99436.41
2022-11-04T05:39:25.300Z,99435.34
2022-11-04T05:44:27.194Z,99447.47
2022-11-04T05:49:29.041Z,99455.91
2022-11-04T05:54:30.924Z,99454.00
2022-11-04T05:59:32.996Z,99453.75
2022-11-04T06:04:34.869Z,99445.75
2022-11-04T06:09:39.762Z,99445.19
2022-11-04T06:14:42.224Z,99459.81
2022-11-04T06:19:44.263Z,99454.31
2022-11-04T06:24:46.308Z,99459.31
2022-11-04T06:29:48.273Z,99459.34
2022-11-04T06:34:50.202Z,99471.09
2022-11-04T06:39:52.100Z,99474.72
2022-11-04T06:44:53.977Z,99476.25
2022-11-04T06:49:55.889Z,99474.31
2022-11-04T06:54:58.104Z,99474.91
2022-11-04T07:00:00.124Z,99465.13
2022-11-04T07:05:02.141Z,99477.66
2022-11-04T07:10:05.280Z,99486.97
2022-11-04T07:15:07.617Z,99492.34
2022-11-04T07:20:13.200Z,99495.94
2022-11-04T07:25:15.171Z,99495.25
2022-11-04T07:30:17.154Z,99491.69
2022-11-04T07:35:19.142Z,99485.06
2022-11-04T07:40:21.142Z,99482.19
2022-11-04T07:45:23.074Z,99479.19
2022-11-04T07:50:25.142Z,99482.41
2022-11-04T07:55:27.253Z,99488.53
2022-11-04T08:00:29.197Z,99489.94
2022-11-04T08:05:31.173Z,99484.69
2022-11-04T08:10:33.538Z,99486.47
2022-11-04T08:15:36.208Z,99488.28
2022-11-04T08:20:38.579Z,99481.88
2022-11-04T08:25:40.565Z,99485.34
2022-11-04T08:30:42.811Z,99477.78
2022-11-04T08:35:44.797Z,99473.63
2022-11-04T08:40:46.820Z,99474.06
2022-11-04T08:45:48.863Z,99469.84
2022-11-04T08:50:52.837Z,99477.72
2022-11-04T08:55:55.280Z,99467.50
2022-11-04T09:00:58.031Z,99481.34
2022-11-04T09:06:00.241Z,99480.63
2022-11-04T09:11:02.180Z,99479.69
2022-11-04T09:16:04.883Z,99479.41
2022-11-04T09:21:07.850Z,99468.03
2022-11-04T09:26:14.387Z,99481.72
2022-11-04T09:31:17.760Z,99474.97
2022-11-04T09:36:19.752Z,99476.09
2022-11-04T09:41:24.686Z,99469.31
2022-11-04T09:46:27.232Z,99470.69
2022-11-04T09:56:53.221Z,99477.06
2022-11-04T10:01:55.240Z,99478.88
2022-11-04T10:06:57.184Z,99480.09
2022-11-04T10:12:14.149Z,99475.66
2022-11-04T10:17:33.533Z,99483.53
2022-11-04T10:22:41.306Z,99483.97
2022-11-04T10:27:44.844Z,99477.72
2022-11-04T10:32:53.075Z,99474.97
2022-11-04T10:37:55.688Z,99470.41
2022-11-04T10:43:00.047Z,99470.03
2022-11-04T10:48:08.798Z,99468.94
2022-11-04T10:53:20.224Z,99476.34
2022-11-04T10:58:24.739Z,99469.53
2022-11-04T11:03:28.837Z,99487.38
2022-11-04T11:08:33.119Z,99484.47
2022-11-04T11:13:39.831Z,99484.78
2022-11-04T11:18:42.223Z,99475.00
2022-11-04T11:23:47.481Z,99479.41
2022-11-04T11:28:57.497Z,99489.94
2022-11-04T11:34:03.353Z,99489.94
2022-11-04T11:39:11.234Z,99491.31
2022-11-04T11:44:22.024Z,99494.34
2022-11-04T11:49:35.975Z,99497.94
2022-11-04T11:54:39.261Z,99494.34
2022-11-04T12:11:20.470Z,99498.88
2022-11-04T12:16:22.379Z,99505.34
2022-11-04T12:21:33.354Z,99507.16
2022-11-04T12:26:38.104Z,99503.28
2022-11-04T12:31:49.145Z,99510.34
2022-11-04T12:37:15.622Z,99505.91
2022-11-04T12:42:29.705Z,99513.66
2022-11-04T12:47:44.863Z,99507.03
2022-11-04T12:53:05.206Z,99516.44
2022-11-04T12:58:07.111Z,99517.69
2022-11-04T13:03:18.121Z,99525.41
2022-11-04T13:08:31.945Z,99515.31
2022-11-04T13:13:36.850Z,99519.31
2022-11-04T13:18:40.493Z,99520.41
2022-11-04T13:23:42.425Z,99521.66
2022-11-04T13:28:46.845Z,99530.63
2022-11-04T13:33:58.358Z,99534.34
2022-11-04T13:39:02.220Z,99534.03
2022-11-04T13:44:11.031Z,99543.56
2022-11-04T13:49:13.570Z,99551.19
2022-11-04T13:54:29.548Z,99552.13
2022-11-04T13:59:32.145Z,99550.88
2022-11-04T14:04:34.142Z,99557.22
2022-11-04T14:09:42.118Z,99564.41
2022-11-04T14:14:48.830Z,99558.31
2022-11-04T14:19:56.765Z,99565.22
2022-11-04T14:24:59.632Z,99563.16
2022-11-04T14:30:01.931Z,99573.78
2022-11-04T14:35:06.168Z,99562.44
2022-11-04T14:40:24.943Z,99564.41
2022-11-04T14:45:29.628Z,99575.31
2022-11-04T14:50:31.585Z,99583.63
2022-11-04T14:55:33.495Z,99586.81
2022-11-04T15:00:37.477Z,99589.31
2022-11-04T15:05:40.489Z,99578.50
2022-11-04T15:10:42.494Z,99594.44
2022-11-04T15:15:45.498Z,99597.31
2022-11-04T15:20:49.376Z,99601.59
2022-11-04T15:25:51.503Z,99602.44
2022-11-04T15:31:03.720Z,99607.81
2022-11-04T15:36:06.610Z,99608.78
2022-11-04T15:41:27.600Z,99621.06
2022-11-04T15:46:30.997Z,99624.78
2022-11-04T15:51:37.782Z,99622.28
2022-11-04T15:56:42.589Z,99630.16
2022-11-04T16:01:45.983Z,99634.44
2022-11-04T16:07:02.580Z,99641.34
2022-11-04T16:12:06.448Z,99637.75
2022-11-04T16:17:10.369Z,99636.81
2022-11-04T16:22:17.924Z,99643.84
2022-11-04T16:27:21.596Z,99649.09
2022-11-04T16:32:31.269Z,99658.75
2022-11-04T16:37:33.261Z,99665.09
2022-11-04T16:42:35.234Z,99654.84
2022-11-04T16:47:40.593Z,99642.66
2022-11-04T16:52:44.447Z,99665.34
2022-11-04T16:57:46.804Z,99666.31
2022-11-04T17:02:49.723Z,99672.38
2022-11-04T17:07:54.509Z,99671.69
2022-11-04T17:12:57.315Z,99676.09
2022-11-04T17:17:59.245Z,99672.91
2022-11-04T17:23:01.245Z,99675.78
2022-11-04T17:28:03.100Z,99683.66
2022-11-04T17:33:06.728Z,99687.13
2022-11-04T17:38:10.671Z,99683.41
2022-11-04T17:43:30.900Z,99686.03
2022-11-04T17:48:32.893Z,99687.69
2022-11-04T17:53:34.836Z,99696.41
2022-11-04T17:58:37.145Z,99693.38
2022-11-04T18:03:39.133Z,99697.53
2022-11-04T18:08:43.569Z,99700.28
2022-11-04T18:13:45.498Z,99706.50
2022-11-04T18:18:47.494Z,99707.91
2022-11-04T18:23:49.371Z,99707.91
2022-11-04T18:28:51.752Z,99707.66
2022-11-04T18:33:53.840Z,99713.16
2022-11-04T18:38:55.813Z,99712.44
2022-11-04T18:43:57.836Z,99712.56
2022-11-04T18:48:59.781Z,99717.81
2022-11-04T18:54:03.952Z,99727.72
2022-11-04T18:59:09.000Z,99722.75
2022-11-04T19:04:11.322Z,99722.88
2022-11-04T19:14:38.610Z,99730.50
2022-11-04T19:19:41.300Z,99733.81
2022-11-04T19:24:43.415Z,99734.97
2022-11-04T19:29:45.309Z,99733.19
2022-11-04T19:34:47.346Z,99741.31
2022-11-04T19:39:49.888Z,99750.00
2022-11-04T19:44:53.086Z,99758.97
2022-11-04T19:49:55.816Z,99751.78
2022-11-04T19:54:57.833Z,99761.34
2022-11-04T20:00:00.870Z,99757.88
2022-11-04T20:05:13.635Z,99762.16
2022-11-04T20:10:15.627Z,99771.81
2022-11-04T20:15:17.516Z,99775.28
2022-11-04T20:20:19.390Z,99779.69
2022-11-04T20:25:21.361Z,99787.69
2022-11-04T20:30:23.351Z,99782.31
2022-11-04T20:35:25.913Z,99788.66
2022-11-04T20:40:28.011Z,99793.53
2022-11-04T20:45:30.167Z,99782.19
2022-11-04T20:50:32.104Z,99797.94
2022-11-04T20:55:34.669Z,99798.78
2022-11-04T21:00:36.940Z,99800.56
2022-11-04T21:05:39.013Z,99800.66
2022-11-04T21:10:40.942Z,99808.81
2022-11-04T21:15:44.246Z,99802.75
2022-11-04T21:20:46.212Z,99803.81
2022-11-04T21:25:49.997Z,99811.97
2022-11-04T21:30:53.235Z,99794.50
2022-11-04T21:35:55.160Z,99814.72
2022-11-04T21:41:01.046Z,99816.41
2022-11-04T21:46:07.901Z,99820.94
2022-11-04T21:51:11.286Z,99821.78
2022-11-04T21:56:15.154Z,99816.91
2022-11-04T22:01:18.761Z,99832.88
2022-11-04T22:06:20.891Z,99833.97
2022-11-04T22:11:30.259Z,99829.94
2022-11-04T22:16:35.208Z,99829.38
2022-11-04T22:21:39.365Z,99839.41
2022-11-04T22:26:41.698Z,99833.06
2022-11-04T22:31:44.758Z,99841.38
2022-11-04T22:36:46.654Z,99834.69
2022-11-04T22:41:50.020Z,99854.34
2022-11-04T22:46:52.058Z,99851.34
2022-11-04T22:51:54.009Z,99851.34
2022-11-04T22:56:55.972Z,99851.47
2022-11-04T23:01:58.121Z,99830.38
2022-11-04T23:07:00.209Z,99862.56
2022-11-04T23:12:20.516Z,99859.09
2022-11-04T23:17:41.516Z,99853.69
2022-11-04T23:23:01.747Z,99866.56
2022-11-04T23:28:36.016Z,99868.47
2022-11-04T23:33:56.263Z,99882.19
2022-11-04T23:38:58.109Z,99885.91
2022-11-04T23:43:59.952Z,99883.28
2022-11-04T23:49:27.708Z,99886.84
2022-11-04T23:54:48.407Z,99894.03
